sensor_id;sensor_type;location;lat;lon;timestamp;temperature;humidity
30280;DHT22;17097;50.916;5.344;2022-12-07T00:01:35;6.80;99.90
30280;DHT22;17097;50.916;5.344;2022-12-07T00:04:03;6.80;99.90
30280;DHT22;17097;50.916;5.344;2022-12-07T00:06:32;6.80;99.90
30280;DHT22;17097;50.916;5.344;2022-12-07T00:08:58;6.90;99.90
30280;DHT22;17097;50.916;5.344;2022-12-07T00:11:24;6.90;99.90
30280;DHT22;17097;50.916;5.344;2022-12-07T00:13:53;6.80;99.90
30280;DHT22;17097;50.916;5.344;2022-12-07T00:16:20;6.80;99.90
30280;DHT22;17097;50.916;5.344;2022-12-07T00:18:48;6.60;99.90
30280;DHT22;17097;50.916;5.344;2022-12-07T00:23:40;6.70;99.90
30280;DHT22;17097;50.916;5.344;2022-12-07T00:26:07;6.90;99.90
30280;DHT22;17097;50.916;5.344;2022-12-07T00:28:33;6.90;99.90
30280;DHT22;17097;50.916;5.344;2022-12-07T00:31:05;6.80;99.90
30280;DHT22;17097;50.916;5.344;2022-12-07T00:33:34;6.90;99.90
30280;DHT22;17097;50.916;5.344;2022-12-07T00:36:01;7.10;99.90
30280;DHT22;17097;50.916;5.344;2022-12-07T00:38:28;6.90;99.90
30280;DHT22;17097;50.916;5.344;2022-12-07T00:40:55;6.80;99.90
30280;DHT22;17097;50.916;5.344;2022-12-07T00:43:20;6.80;99.90
30280;DHT22;17097;50.916;5.344;2022-12-07T00:45:46;6.80;99.90
30280;DHT22;17097;50.916;5.344;2022-12-07T00:48:12;6.90;99.90
30280;DHT22;17097;50.916;5.344;2022-12-07T00:50:40;6.80;99.90
30280;DHT22;17097;50.916;5.344;2022-12-07T00:53:06;6.80;99.90
30280;DHT22;17097;50.916;5.344;2022-12-07T00:55:32;6.80;99.90
30280;DHT22;17097;50.916;5.344;2022-12-07T00:57:58;6.70;99.90
30280;DHT22;17097;50.916;5.344;2022-12-07T01:00:24;6.60;99.90
30280;DHT22;17097;50.916;5.344;2022-12-07T01:02:50;6.90;99.90
30280;DHT22;17097;50.916;5.344;2022-12-07T01:05:16;6.80;99.90
30280;DHT22;17097;50.916;5.344;2022-12-07T01:07:41;6.90;99.90
30280;DHT22;17097;50.916;5.344;2022-12-07T01:10:07;6.90;99.90
30280;DHT22;17097;50.916;5.344;2022-12-07T01:12:36;6.70;99.90
30280;DHT22;17097;50.916;5.344;2022-12-07T01:15:04;6.60;99.90
30280;DHT22;17097;50.916;5.344;2022-12-07T01:17:32;6.70;99.90
30280;DHT22;17097;50.916;5.344;2022-12-07T01:19:58;6.60;99.90
30280;DHT22;17097;50.916;5.344;2022-12-07T01:22:25;6.50;99.90
30280;DHT22;17097;50.916;5.344;2022-12-07T01:24:53;6.60;99.90
30280;DHT22;17097;50.916;5.344;2022-12-07T01:27:19;6.50;99.90
30280;DHT22;17097;50.916;5.344;2022-12-07T01:29:45;6.50;99.90
30280;DHT22;17097;50.916;5.344;2022-12-07T01:32:11;6.60;99.90
30280;DHT22;17097;50.916;5.344;2022-12-07T01:34:37;6.70;99.90
30280;DHT22;17097;50.916;5.344;2022-12-07T01:37:02;6.80;99.90
30280;DHT22;17097;50.916;5.344;2022-12-07T01:39:28;6.60;99.90
30280;DHT22;17097;50.916;5.344;2022-12-07T01:41:54;6.70;99.90
30280;DHT22;17097;50.916;5.344;2022-12-07T01:44:21;6.80;99.90
30280;DHT22;17097;50.916;5.344;2022-12-07T01:46:57;6.90;99.90
30280;DHT22;17097;50.916;5.344;2022-12-07T01:51:57;7.00;99.90
30280;DHT22;17097;50.916;5.344;2022-12-07T01:54:24;7.00;99.90
30280;DHT22;17097;50.916;5.344;2022-12-07T01:56:51;7.00;99.90
30280;DHT22;17097;50.916;5.344;2022-12-07T01:59:18;6.80;99.90
30280;DHT22;17097;50.916;5.344;2022-12-07T02:01:45;6.90;99.90
30280;DHT22;17097;50.916;5.344;2022-12-07T02:04:11;6.90;99.90
30280;DHT22;17097;50.916;5.344;2022-12-07T02:06:38;6.90;99.90
30280;DHT22;17097;50.916;5.344;2022-12-07T02:09:04;7.00;99.90
30280;DHT22;17097;50.916;5.344;2022-12-07T02:11:30;6.90;99.90
30280;DHT22;17097;50.916;5.344;2022-12-07T02:13:56;6.90;99.90
30280;DHT22;17097;50.916;5.344;2022-12-07T02:16:25;6.80;99.90
30280;DHT22;17097;50.916;5.344;2022-12-07T02:26:43;7.00;99.90
30280;DHT22;17097;50.916;5.344;2022-12-07T02:32:11;6.90;99.90
30280;DHT22;17097;50.916;5.344;2022-12-07T02:37:26;6.90;99.90
30280;DHT22;17097;50.916;5.344;2022-12-07T02:39:57;6.70;99.90
30280;DHT22;17097;50.916;5.344;2022-12-07T02:42:36;6.70;99.90
30280;DHT22;17097;50.916;5.344;2022-12-07T02:45:03;6.80;99.90
30280;DHT22;17097;50.916;5.344;2022-12-07T02:47:30;6.70;99.90
30280;DHT22;17097;50.916;5.344;2022-12-07T02:49:57;6.60;99.90
30280;DHT22;17097;50.916;5.344;2022-12-07T02:52:23;6.60;99.90
30280;DHT22;17097;50.916;5.344;2022-12-07T02:54:48;6.60;99.90
30280;DHT22;17097;50.916;5.344;2022-12-07T02:57:24;6.80;99.90
30280;DHT22;17097;50.916;5.344;2022-12-07T03:10:56;6.70;99.90
30280;DHT22;17097;50.916;5.344;2022-12-07T03:18:21;6.60;99.90
30280;DHT22;17097;50.916;5.344;2022-12-07T03:20:48;6.60;99.90
30280;DHT22;17097;50.916;5.344;2022-12-07T03:23:16;6.60;99.90
30280;DHT22;17097;50.916;5.344;2022-12-07T03:25:47;6.70;99.90
30280;DHT22;17097;50.916;5.344;2022-12-07T03:28:14;6.70;99.90
30280;DHT22;17097;50.916;5.344;2022-12-07T03:33:11;6.70;99.90
30280;DHT22;17097;50.916;5.344;2022-12-07T03:35:40;6.60;99.90
30280;DHT22;17097;50.916;5.344;2022-12-07T03:38:25;6.60;99.90
30280;DHT22;17097;50.916;5.344;2022-12-07T03:40:54;6.70;99.90
30280;DHT22;17097;50.916;5.344;2022-12-07T03:43:24;6.80;99.90
30280;DHT22;17097;50.916;5.344;2022-12-07T03:48:28;6.90;99.90
30280;DHT22;17097;50.916;5.344;2022-12-07T03:53:39;6.90;99.90
30280;DHT22;17097;50.916;5.344;2022-12-07T03:56:06;6.80;99.90
30280;DHT22;17097;50.916;5.344;2022-12-07T03:58:33;6.80;99.90
30280;DHT22;17097;50.916;5.344;2022-12-07T04:01:00;6.90;99.90
30280;DHT22;17097;50.916;5.344;2022-12-07T04:03:26;6.80;99.90
30280;DHT22;17097;50.916;5.344;2022-12-07T04:05:51;7.00;99.90
30280;DHT22;17097;50.916;5.344;2022-12-07T04:08:17;6.80;99.90
30280;DHT22;17097;50.916;5.344;2022-12-07T04:10:42;6.70;99.90
30280;DHT22;17097;50.916;5.344;2022-12-07T04:13:08;6.80;99.90
30280;DHT22;17097;50.916;5.344;2022-12-07T04:15:33;6.80;99.90
30280;DHT22;17097;50.916;5.344;2022-12-07T04:18:01;6.70;99.90
30280;DHT22;17097;50.916;5.344;2022-12-07T04:20:27;6.70;99.90
30280;DHT22;17097;50.916;5.344;2022-12-07T04:22:52;6.60;99.90
30280;DHT22;17097;50.916;5.344;2022-12-07T04:25:18;6.60;99.90
30280;DHT22;17097;50.916;5.344;2022-12-07T04:27:43;6.50;99.90
30280;DHT22;17097;50.916;5.344;2022-12-07T04:30:09;6.30;99.90
30280;DHT22;17097;50.916;5.344;2022-12-07T04:32:35;6.30;99.90
30280;DHT22;17097;50.916;5.344;2022-12-07T04:35:01;6.50;99.90
30280;DHT22;17097;50.916;5.344;2022-12-07T04:37:28;6.40;99.90
30280;DHT22;17097;50.916;5.344;2022-12-07T04:39:57;6.40;99.90
30280;DHT22;17097;50.916;5.344;2022-12-07T04:42:22;6.40;99.90
30280;DHT22;17097;50.916;5.344;2022-12-07T04:44:48;6.30;99.90
30280;DHT22;17097;50.916;5.344;2022-12-07T04:47:13;6.40;99.90
30280;DHT22;17097;50.916;5.344;2022-12-07T04:49:39;6.30;99.90
30280;DHT22;17097;50.916;5.344;2022-12-07T04:52:08;6.40;99.90
30280;DHT22;17097;50.916;5.344;2022-12-07T04:54:34;6.40;99.90
30280;DHT22;17097;50.916;5.344;2022-12-07T04:57:00;6.50;99.90
30280;DHT22;17097;50.916;5.344;2022-12-07T04:59:25;6.40;99.90
30280;DHT22;17097;50.916;5.344;2022-12-07T05:01:51;6.40;99.90
30280;DHT22;17097;50.916;5.344;2022-12-07T05:04:17;6.40;99.90
30280;DHT22;17097;50.916;5.344;2022-12-07T05:06:43;6.30;99.90
30280;DHT22;17097;50.916;5.344;2022-12-07T05:09:13;6.30;99.90
30280;DHT22;17097;50.916;5.344;2022-12-07T05:11:38;6.30;99.90
30280;DHT22;17097;50.916;5.344;2022-12-07T05:14:15;6.40;99.90
30280;DHT22;17097;50.916;5.344;2022-12-07T05:16:41;6.40;99.90
30280;DHT22;17097;50.916;5.344;2022-12-07T05:19:08;6.30;99.90
30280;DHT22;17097;50.916;5.344;2022-12-07T05:21:36;6.20;99.90
30280;DHT22;17097;50.916;5.344;2022-12-07T05:24:01;6.10;99.90
30280;DHT22;17097;50.916;5.344;2022-12-07T05:26:29;6.10;99.90
30280;DHT22;17097;50.916;5.344;2022-12-07T05:28:55;6.10;99.90
30280;DHT22;17097;50.916;5.344;2022-12-07T05:31:22;6.00;99.90
30280;DHT22;17097;50.916;5.344;2022-12-07T05:33:47;6.10;99.90
30280;DHT22;17097;50.916;5.344;2022-12-07T05:36:13;6.20;99.90
30280;DHT22;17097;50.916;5.344;2022-12-07T05:38:40;6.20;99.90
30280;DHT22;17097;50.916;5.344;2022-12-07T05:41:08;6.10;99.90
30280;DHT22;17097;50.916;5.344;2022-12-07T05:43:54;6.20;99.90
30280;DHT22;17097;50.916;5.344;2022-12-07T05:46:23;6.20;99.90
30280;DHT22;17097;50.916;5.344;2022-12-07T05:48:49;6.10;99.90
30280;DHT22;17097;50.916;5.344;2022-12-07T05:51:14;6.10;99.90
30280;DHT22;17097;50.916;5.344;2022-12-07T05:53:40;6.00;99.90
30280;DHT22;17097;50.916;5.344;2022-12-07T05:56:08;6.00;99.90
30280;DHT22;17097;50.916;5.344;2022-12-07T05:58:34;6.00;99.90
30280;DHT22;17097;50.916;5.344;2022-12-07T06:01:18;6.10;99.90
30280;DHT22;17097;50.916;5.344;2022-12-07T06:03:43;6.00;99.90
30280;DHT22;17097;50.916;5.344;2022-12-07T06:06:10;6.00;99.90
30280;DHT22;17097;50.916;5.344;2022-12-07T06:08:36;6.00;99.90
30280;DHT22;17097;50.916;5.344;2022-12-07T06:11:02;6.20;99.90
30280;DHT22;17097;50.916;5.344;2022-12-07T06:13:46;6.10;99.90
30280;DHT22;17097;50.916;5.344;2022-12-07T06:16:11;6.10;99.90
30280;DHT22;17097;50.916;5.344;2022-12-07T06:18:37;6.20;99.90
30280;DHT22;17097;50.916;5.344;2022-12-07T06:21:03;6.20;99.90
30280;DHT22;17097;50.916;5.344;2022-12-07T06:23:31;6.20;99.90
30280;DHT22;17097;50.916;5.344;2022-12-07T06:25:57;6.20;99.90
30280;DHT22;17097;50.916;5.344;2022-12-07T06:28:25;6.20;99.90
30280;DHT22;17097;50.916;5.344;2022-12-07T06:31:00;6.10;99.90
30280;DHT22;17097;50.916;5.344;2022-12-07T06:33:26;6.10;99.90
30280;DHT22;17097;50.916;5.344;2022-12-07T06:35:52;6.30;99.90
30280;DHT22;17097;50.916;5.344;2022-12-07T06:38:18;6.40;99.90
30280;DHT22;17097;50.916;5.344;2022-12-07T06:40:44;6.40;99.90
30280;DHT22;17097;50.916;5.344;2022-12-07T06:43:10;6.30;99.90
30280;DHT22;17097;50.916;5.344;2022-12-07T06:45:36;6.30;99.90
30280;DHT22;17097;50.916;5.344;2022-12-07T06:48:04;6.30;99.90
30280;DHT22;17097;50.916;5.344;2022-12-07T06:50:29;6.40;99.90
30280;DHT22;17097;50.916;5.344;2022-12-07T06:52:55;6.40;99.90
30280;DHT22;17097;50.916;5.344;2022-12-07T06:55:22;6.50;99.90
30280;DHT22;17097;50.916;5.344;2022-12-07T06:57:47;6.50;99.90
30280;DHT22;17097;50.916;5.344;2022-12-07T07:00:13;6.50;99.90
30280;DHT22;17097;50.916;5.344;2022-12-07T07:02:39;6.50;99.90
30280;DHT22;17097;50.916;5.344;2022-12-07T07:05:05;6.40;99.90
30280;DHT22;17097;50.916;5.344;2022-12-07T07:07:30;6.60;99.90
30280;DHT22;17097;50.916;5.344;2022-12-07T07:09:56;6.60;99.90
30280;DHT22;17097;50.916;5.344;2022-12-07T07:12:22;6.60;99.90
30280;DHT22;17097;50.916;5.344;2022-12-07T07:14:47;6.40;99.90
30280;DHT22;17097;50.916;5.344;2022-12-07T07:17:13;6.30;99.90
30280;DHT22;17097;50.916;5.344;2022-12-07T07:19:41;6.40;99.90
30280;DHT22;17097;50.916;5.344;2022-12-07T07:22:06;6.20;99.90
30280;DHT22;17097;50.916;5.344;2022-12-07T07:24:32;6.20;99.90
30280;DHT22;17097;50.916;5.344;2022-12-07T07:26:58;6.20;99.90
30280;DHT22;17097;50.916;5.344;2022-12-07T07:29:24;6.20;99.90
30280;DHT22;17097;50.916;5.344;2022-12-07T07:31:50;6.20;99.90
30280;DHT22;17097;50.916;5.344;2022-12-07T07:34:17;6.10;99.90
30280;DHT22;17097;50.916;5.344;2022-12-07T07:36:44;6.10;99.90
30280;DHT22;17097;50.916;5.344;2022-12-07T07:39:10;6.10;99.90
30280;DHT22;17097;50.916;5.344;2022-12-07T07:41:38;6.10;99.90
30280;DHT22;17097;50.916;5.344;2022-12-07T07:44:06;6.10;99.90
30280;DHT22;17097;50.916;5.344;2022-12-07T07:46:32;6.10;99.90
30280;DHT22;17097;50.916;5.344;2022-12-07T07:48:58;6.00;99.90
30280;DHT22;17097;50.916;5.344;2022-12-07T07:51:23;6.10;99.90
30280;DHT22;17097;50.916;5.344;2022-12-07T07:53:49;6.10;99.90
30280;DHT22;17097;50.916;5.344;2022-12-07T07:56:15;6.10;99.90
30280;DHT22;17097;50.916;5.344;2022-12-07T07:58:41;6.20;99.90
30280;DHT22;17097;50.916;5.344;2022-12-07T08:01:07;6.20;99.90
30280;DHT22;17097;50.916;5.344;2022-12-07T08:03:33;6.20;99.90
30280;DHT22;17097;50.916;5.344;2022-12-07T08:05:59;6.10;99.90
30280;DHT22;17097;50.916;5.344;2022-12-07T08:08:25;6.20;99.90
30280;DHT22;17097;50.916;5.344;2022-12-07T08:10:51;6.20;99.90
30280;DHT22;17097;50.916;5.344;2022-12-07T08:13:19;6.20;99.90
30280;DHT22;17097;50.916;5.344;2022-12-07T08:15:46;6.20;99.90
30280;DHT22;17097;50.916;5.344;2022-12-07T08:18:15;6.30;99.90
30280;DHT22;17097;50.916;5.344;2022-12-07T08:20:40;6.50;99.90
30280;DHT22;17097;50.916;5.344;2022-12-07T08:23:06;6.60;99.90
30280;DHT22;17097;50.916;5.344;2022-12-07T08:25:33;6.80;99.90
30280;DHT22;17097;50.916;5.344;2022-12-07T08:27:58;6.80;99.90
30280;DHT22;17097;50.916;5.344;2022-12-07T08:30:26;7.10;99.90
30280;DHT22;17097;50.916;5.344;2022-12-07T08:32:52;7.10;99.90
30280;DHT22;17097;50.916;5.344;2022-12-07T08:35:18;7.20;99.90
30280;DHT22;17097;50.916;5.344;2022-12-07T08:37:43;7.40;99.90
30280;DHT22;17097;50.916;5.344;2022-12-07T08:40:10;7.70;99.90
30280;DHT22;17097;50.916;5.344;2022-12-07T08:42:36;7.80;99.90
30280;DHT22;17097;50.916;5.344;2022-12-07T08:45:06;7.90;99.90
30280;DHT22;17097;50.916;5.344;2022-12-07T08:47:33;8.50;99.90
30280;DHT22;17097;50.916;5.344;2022-12-07T08:50:02;8.80;99.90
30280;DHT22;17097;50.916;5.344;2022-12-07T08:52:30;9.10;99.90
30280;DHT22;17097;50.916;5.344;2022-12-07T08:54:56;9.60;99.90
30280;DHT22;17097;50.916;5.344;2022-12-07T08:57:24;10.10;99.90
30280;DHT22;17097;50.916;5.344;2022-12-07T08:59:50;10.90;99.90
30280;DHT22;17097;50.916;5.344;2022-12-07T09:02:15;11.30;99.90
30280;DHT22;17097;50.916;5.344;2022-12-07T09:04:41;11.20;99.90
30280;DHT22;17097;50.916;5.344;2022-12-07T09:07:06;11.00;99.90
30280;DHT22;17097;50.916;5.344;2022-12-07T09:09:32;10.80;99.90
30280;DHT22;17097;50.916;5.344;2022-12-07T09:11:58;10.90;99.90
30280;DHT22;17097;50.916;5.344;2022-12-07T09:14:24;10.90;99.90
30280;DHT22;17097;50.916;5.344;2022-12-07T09:16:50;10.90;99.90
30280;DHT22;17097;50.916;5.344;2022-12-07T09:19:15;11.20;99.90
30280;DHT22;17097;50.916;5.344;2022-12-07T09:21:41;11.40;99.90
30280;DHT22;17097;50.916;5.344;2022-12-07T09:24:06;11.70;99.90
30280;DHT22;17097;50.916;5.344;2022-12-07T09:26:32;11.00;99.90
30280;DHT22;17097;50.916;5.344;2022-12-07T09:28:58;11.00;99.90
30280;DHT22;17097;50.916;5.344;2022-12-07T09:31:24;11.00;99.90
30280;DHT22;17097;50.916;5.344;2022-12-07T09:33:54;10.90;99.90
30280;DHT22;17097;50.916;5.344;2022-12-07T09:36:20;11.10;99.90
30280;DHT22;17097;50.916;5.344;2022-12-07T09:38:45;11.30;99.90
30280;DHT22;17097;50.916;5.344;2022-12-07T09:41:11;11.10;99.90
30280;DHT22;17097;50.916;5.344;2022-12-07T09:43:37;10.90;99.90
30280;DHT22;17097;50.916;5.344;2022-12-07T09:46:08;10.50;99.90
30280;DHT22;17097;50.916;5.344;2022-12-07T09:48:35;10.30;99.90
30280;DHT22;17097;50.916;5.344;2022-12-07T09:51:02;10.30;99.90
30280;DHT22;17097;50.916;5.344;2022-12-07T09:53:36;10.00;99.90
30280;DHT22;17097;50.916;5.344;2022-12-07T09:56:03;10.20;99.90
30280;DHT22;17097;50.916;5.344;2022-12-07T09:58:29;9.90;99.90
30280;DHT22;17097;50.916;5.344;2022-12-07T10:01:00;9.70;99.90
30280;DHT22;17097;50.916;5.344;2022-12-07T10:03:27;9.70;99.90
30280;DHT22;17097;50.916;5.344;2022-12-07T10:05:53;9.60;99.90
30280;DHT22;17097;50.916;5.344;2022-12-07T10:08:19;9.40;99.90
30280;DHT22;17097;50.916;5.344;2022-12-07T10:10:47;9.20;99.90
30280;DHT22;17097;50.916;5.344;2022-12-07T10:13:17;9.40;99.90
30280;DHT22;17097;50.916;5.344;2022-12-07T10:15:52;10.20;99.90
30280;DHT22;17097;50.916;5.344;2022-12-07T10:23:27;13.00;99.90
30280;DHT22;17097;50.916;5.344;2022-12-07T10:25:52;13.10;99.90
30280;DHT22;17097;50.916;5.344;2022-12-07T10:28:20;12.80;99.90
30280;DHT22;17097;50.916;5.344;2022-12-07T10:35:55;12.30;99.90
30280;DHT22;17097;50.916;5.344;2022-12-07T10:38:27;12.10;99.90
30280;DHT22;17097;50.916;5.344;2022-12-07T10:41:07;11.90;99.90
30280;DHT22;17097;50.916;5.344;2022-12-07T10:43:35;11.50;99.90
30280;DHT22;17097;50.916;5.344;2022-12-07T10:46:13;11.00;99.90
30280;DHT22;17097;50.916;5.344;2022-12-07T10:51:52;10.60;99.90
30280;DHT22;17097;50.916;5.344;2022-12-07T10:57:07;9.90;99.90
30280;DHT22;17097;50.916;5.344;2022-12-07T10:59:55;9.80;99.90
30280;DHT22;17097;50.916;5.344;2022-12-07T11:02:34;10.10;99.90
30280;DHT22;17097;50.916;5.344;2022-12-07T11:13:04;9.70;99.90
30280;DHT22;17097;50.916;5.344;2022-12-07T11:20:43;9.70;99.90
30280;DHT22;17097;50.916;5.344;2022-12-07T11:41:01;9.30;99.90
30280;DHT22;17097;50.916;5.344;2022-12-07T11:43:40;9.70;99.90
30280;DHT22;17097;50.916;5.344;2022-12-07T11:46:12;9.80;99.90
30280;DHT22;17097;50.916;5.344;2022-12-07T11:48:40;9.80;99.90
30280;DHT22;17097;50.916;5.344;2022-12-07T11:51:07;9.80;99.90
30280;DHT22;17097;50.916;5.344;2022-12-07T11:53:45;9.90;99.90
30280;DHT22;17097;50.916;5.344;2022-12-07T11:56:12;9.90;99.90
30280;DHT22;17097;50.916;5.344;2022-12-07T12:03:43;9.90;99.90
30280;DHT22;17097;50.916;5.344;2022-12-07T12:06:12;9.90;99.90
30280;DHT22;17097;50.916;5.344;2022-12-07T12:16:39;9.70;99.90
30280;DHT22;17097;50.916;5.344;2022-12-07T12:19:15;9.70;99.90
30280;DHT22;17097;50.916;5.344;2022-12-07T12:21:43;9.60;99.90
30280;DHT22;17097;50.916;5.344;2022-12-07T12:24:13;9.90;99.90
30280;DHT22;17097;50.916;5.344;2022-12-07T12:26:47;10.10;99.90
30280;DHT22;17097;50.916;5.344;2022-12-07T12:42:44;9.70;99.90
30280;DHT22;17097;50.916;5.344;2022-12-07T12:45:17;9.80;99.90
30280;DHT22;17097;50.916;5.344;2022-12-07T12:47:54;9.30;99.90
30280;DHT22;17097;50.916;5.344;2022-12-07T12:55:16;9.50;99.90
30280;DHT22;17097;50.916;5.344;2022-12-07T12:57:47;9.50;99.90
30280;DHT22;17097;50.916;5.344;2022-12-07T13:00:20;9.60;99.90
30280;DHT22;17097;50.916;5.344;2022-12-07T13:02:55;9.60;99.90
30280;DHT22;17097;50.916;5.344;2022-12-07T13:05:22;9.40;99.90
30280;DHT22;17097;50.916;5.344;2022-12-07T13:08:00;9.50;99.90
30280;DHT22;17097;50.916;5.344;2022-12-07T13:15:37;9.30;99.90
30280;DHT22;17097;50.916;5.344;2022-12-07T13:23:13;9.30;99.90
30280;DHT22;17097;50.916;5.344;2022-12-07T13:25:51;9.20;99.90
30280;DHT22;17097;50.916;5.344;2022-12-07T13:28:19;9.30;99.90
30280;DHT22;17097;50.916;5.344;2022-12-07T13:33:30;9.30;99.90
30280;DHT22;17097;50.916;5.344;2022-12-07T13:35:56;9.40;99.90
30280;DHT22;17097;50.916;5.344;2022-12-07T13:43:52;9.30;99.90
30280;DHT22;17097;50.916;5.344;2022-12-07T13:46:26;9.10;99.90
30280;DHT22;17097;50.916;5.344;2022-12-07T13:48:52;9.00;99.90
30280;DHT22;17097;50.916;5.344;2022-12-07T13:51:19;9.00;99.90
30280;DHT22;17097;50.916;5.344;2022-12-07T13:53:49;9.10;99.90
30280;DHT22;17097;50.916;5.344;2022-12-07T13:56:15;9.40;99.90
30280;DHT22;17097;50.916;5.344;2022-12-07T13:58:43;9.60;99.90
30280;DHT22;17097;50.916;5.344;2022-12-07T14:01:09;9.50;99.90
30280;DHT22;17097;50.916;5.344;2022-12-07T14:03:35;9.50;99.90
30280;DHT22;17097;50.916;5.344;2022-12-07T14:06:06;9.60;99.90
30280;DHT22;17097;50.916;5.344;2022-12-07T14:08:32;9.40;99.90
30280;DHT22;17097;50.916;5.344;2022-12-07T14:10:57;9.90;99.90
30280;DHT22;17097;50.916;5.344;2022-12-07T14:15:55;9.50;99.90
30280;DHT22;17097;50.916;5.344;2022-12-07T14:18:29;9.60;99.90
30280;DHT22;17097;50.916;5.344;2022-12-07T14:21:15;10.00;99.90
30280;DHT22;17097;50.916;5.344;2022-12-07T14:23:42;9.90;99.90
30280;DHT22;17097;50.916;5.344;2022-12-07T14:26:29;9.80;99.90
30280;DHT22;17097;50.916;5.344;2022-12-07T14:28:59;9.30;99.90
30280;DHT22;17097;50.916;5.344;2022-12-07T14:31:39;9.20;99.90
30280;DHT22;17097;50.916;5.344;2022-12-07T14:34:04;9.00;99.90
30280;DHT22;17097;50.916;5.344;2022-12-07T14:36:30;9.00;99.90
30280;DHT22;17097;50.916;5.344;2022-12-07T14:38:55;9.00;99.90
30280;DHT22;17097;50.916;5.344;2022-12-07T14:41:23;9.10;99.90
30280;DHT22;17097;50.916;5.344;2022-12-07T14:44:09;9.10;99.90
30280;DHT22;17097;50.916;5.344;2022-12-07T14:46:36;9.00;99.90
30280;DHT22;17097;50.916;5.344;2022-12-07T14:49:02;8.90;99.90
30280;DHT22;17097;50.916;5.344;2022-12-07T14:51:28;9.00;99.90
30280;DHT22;17097;50.916;5.344;2022-12-07T14:53:55;8.80;99.90
30280;DHT22;17097;50.916;5.344;2022-12-07T14:56:22;8.70;99.90
30280;DHT22;17097;50.916;5.344;2022-12-07T14:58:47;8.80;99.90
30280;DHT22;17097;50.916;5.344;2022-12-07T15:01:14;8.80;99.90
30280;DHT22;17097;50.916;5.344;2022-12-07T15:03:41;8.80;99.90
30280;DHT22;17097;50.916;5.344;2022-12-07T15:06:10;8.80;99.90
30280;DHT22;17097;50.916;5.344;2022-12-07T15:08:38;8.70;99.90
30280;DHT22;17097;50.916;5.344;2022-12-07T15:11:04;8.70;99.90
30280;DHT22;17097;50.916;5.344;2022-12-07T15:13:29;8.80;99.90
30280;DHT22;17097;50.916;5.344;2022-12-07T15:16:15;8.80;99.90
30280;DHT22;17097;50.916;5.344;2022-12-07T15:18:42;8.80;99.90
30280;DHT22;17097;50.916;5.344;2022-12-07T15:21:13;8.60;99.90
30280;DHT22;17097;50.916;5.344;2022-12-07T15:23:39;8.40;99.90
30280;DHT22;17097;50.916;5.344;2022-12-07T15:26:04;8.40;99.90
30280;DHT22;17097;50.916;5.344;2022-12-07T15:28:30;8.20;99.90
30280;DHT22;17097;50.916;5.344;2022-12-07T15:30:56;8.30;99.90
30280;DHT22;17097;50.916;5.344;2022-12-07T15:33:22;8.30;99.90
30280;DHT22;17097;50.916;5.344;2022-12-07T15:35:48;8.40;99.90
30280;DHT22;17097;50.916;5.344;2022-12-07T15:38:14;8.30;99.90
30280;DHT22;17097;50.916;5.344;2022-12-07T15:40:39;8.50;99.90
30280;DHT22;17097;50.916;5.344;2022-12-07T15:43:05;8.50;99.90
30280;DHT22;17097;50.916;5.344;2022-12-07T15:45:51;8.40;99.90
30280;DHT22;17097;50.916;5.344;2022-12-07T15:48:17;8.50;99.90
30280;DHT22;17097;50.916;5.344;2022-12-07T15:50:42;8.40;99.90
30280;DHT22;17097;50.916;5.344;2022-12-07T15:53:08;8.60;99.90
30280;DHT22;17097;50.916;5.344;2022-12-07T15:55:34;8.70;99.90
30280;DHT22;17097;50.916;5.344;2022-12-07T15:58:02;8.60;99.90
30280;DHT22;17097;50.916;5.344;2022-12-07T16:00:28;8.50;99.90
30280;DHT22;17097;50.916;5.344;2022-12-07T16:02:54;8.40;99.90
30280;DHT22;17097;50.916;5.344;2022-12-07T16:05:20;8.50;99.90
30280;DHT22;17097;50.916;5.344;2022-12-07T16:07:46;8.50;99.90
30280;DHT22;17097;50.916;5.344;2022-12-07T16:10:15;8.00;99.90
30280;DHT22;17097;50.916;5.344;2022-12-07T16:12:43;7.90;99.90
30280;DHT22;17097;50.916;5.344;2022-12-07T16:15:08;8.00;99.90
30280;DHT22;17097;50.916;5.344;2022-12-07T16:17:35;8.00;99.90
30280;DHT22;17097;50.916;5.344;2022-12-07T16:20:00;8.00;99.90
30280;DHT22;17097;50.916;5.344;2022-12-07T16:22:28;7.90;99.90
30280;DHT22;17097;50.916;5.344;2022-12-07T16:24:54;7.60;99.90
30280;DHT22;17097;50.916;5.344;2022-12-07T16:27:20;7.60;99.90
30280;DHT22;17097;50.916;5.344;2022-12-07T16:29:46;7.30;99.90
30280;DHT22;17097;50.916;5.344;2022-12-07T16:32:12;7.20;99.90
30280;DHT22;17097;50.916;5.344;2022-12-07T16:34:38;7.50;99.90
30280;DHT22;17097;50.916;5.344;2022-12-07T16:37:04;7.40;99.90
30280;DHT22;17097;50.916;5.344;2022-12-07T16:39:31;7.40;99.90
30280;DHT22;17097;50.916;5.344;2022-12-07T16:41:57;7.40;99.90
30280;DHT22;17097;50.916;5.344;2022-12-07T16:44:25;7.30;99.90
30280;DHT22;17097;50.916;5.344;2022-12-07T16:46:50;7.20;99.90
30280;DHT22;17097;50.916;5.344;2022-12-07T16:49:16;7.20;99.90
30280;DHT22;17097;50.916;5.344;2022-12-07T16:51:43;7.30;99.90
30280;DHT22;17097;50.916;5.344;2022-12-07T16:54:13;7.50;99.90
30280;DHT22;17097;50.916;5.344;2022-12-07T16:56:38;7.40;99.90
30280;DHT22;17097;50.916;5.344;2022-12-07T16:59:04;7.50;99.90
30280;DHT22;17097;50.916;5.344;2022-12-07T17:01:30;7.50;99.90
30280;DHT22;17097;50.916;5.344;2022-12-07T17:03:57;7.40;99.90
30280;DHT22;17097;50.916;5.344;2022-12-07T17:06:23;7.60;99.90
30280;DHT22;17097;50.916;5.344;2022-12-07T17:08:49;7.50;99.90
30280;DHT22;17097;50.916;5.344;2022-12-07T17:11:16;7.50;99.90
30280;DHT22;17097;50.916;5.344;2022-12-07T17:13:42;7.50;99.90
30280;DHT22;17097;50.916;5.344;2022-12-07T17:16:27;7.50;99.90
30280;DHT22;17097;50.916;5.344;2022-12-07T17:18:53;7.60;99.90
30280;DHT22;17097;50.916;5.344;2022-12-07T17:21:21;7.40;99.90
30280;DHT22;17097;50.916;5.344;2022-12-07T17:23:47;7.40;99.90
30280;DHT22;17097;50.916;5.344;2022-12-07T17:26:15;7.40;99.90
30280;DHT22;17097;50.916;5.344;2022-12-07T17:28:41;7.40;99.90
30280;DHT22;17097;50.916;5.344;2022-12-07T17:31:08;7.30;99.90
30280;DHT22;17097;50.916;5.344;2022-12-07T17:33:34;7.30;99.90
30280;DHT22;17097;50.916;5.344;2022-12-07T17:36:00;7.30;99.90
30280;DHT22;17097;50.916;5.344;2022-12-07T17:38:27;7.20;99.90
30280;DHT22;17097;50.916;5.344;2022-12-07T17:40:53;7.20;99.90
30280;DHT22;17097;50.916;5.344;2022-12-07T17:43:18;7.10;99.90
30280;DHT22;17097;50.916;5.344;2022-12-07T17:45:46;7.20;99.90
30280;DHT22;17097;50.916;5.344;2022-12-07T17:48:12;7.20;99.90
30280;DHT22;17097;50.916;5.344;2022-12-07T17:50:40;7.20;99.90
30280;DHT22;17097;50.916;5.344;2022-12-07T17:53:25;7.20;99.90
30280;DHT22;17097;50.916;5.344;2022-12-07T17:55:52;7.30;99.90
30280;DHT22;17097;50.916;5.344;2022-12-07T17:58:17;7.40;99.90
30280;DHT22;17097;50.916;5.344;2022-12-07T18:00:43;7.40;99.90
30280;DHT22;17097;50.916;5.344;2022-12-07T18:03:09;7.30;99.90
30280;DHT22;17097;50.916;5.344;2022-12-07T18:05:36;7.30;99.90
30280;DHT22;17097;50.916;5.344;2022-12-07T18:08:02;7.20;99.90
30280;DHT22;17097;50.916;5.344;2022-12-07T18:10:28;7.20;99.90